Time;durP1;ratioP1;P1;durP2;ratioP2;P2;SDS_P1;SDS_P2;PMS_P1;PMS_P2;Temp;Humidity;BMP_temperature;BMP_pressure;BME280_temperature;BME280_humidity;BME280_pressure;Samples;Min_cycle;Max_cycle;Signal;HPM_P1;HPM_P2
2022/08/07 00:00:28;;;;;;;;;9.00;9.00;;;;;25.24;48.44;99240.31;5033421;28;45370;-56
2022/08/07 00:02:55;;;;;;;;;10.25;9.50;;;;;25.21;48.77;99248.72;5033473;28;45449;-56
2022/08/07 00:05:22;;;;;;;;;10.75;10.75;;;;;25.15;48.78;99249.28;5034665;28;45349;-57
2022/08/07 00:07:47;;;;;;;;;9.00;8.00;;;;;25.09;48.98;99243.66;5036949;28;45500;-56
2022/08/07 00:10:12;;;;;;;;;9.25;8.50;;;;;25.03;49.15;99242.41;5036910;28;45595;-57
2022/08/07 00:12:38;;;;;;;;;9.25;9.25;;;;;24.95;49.01;99247.72;5036430;28;45311;-56
2022/08/07 00:15:04;;;;;;;;;9.50;5.75;;;;;24.90;49.47;99245.44;5036692;28;45428;-55
2022/08/07 00:17:30;;;;;;;;;10.75;10.00;;;;;24.87;48.92;99255.66;5036788;28;45557;-57
2022/08/07 00:19:55;;;;;;;;;10.50;9.50;;;;;24.84;49.54;99243.31;5036695;28;45358;-56
2022/08/07 00:22:21;;;;;;;;;10.00;10.00;;;;;24.80;49.19;99249.19;5036670;28;47059;-56
2022/08/07 00:24:46;;;;;;;;;9.75;9.00;;;;;24.74;49.38;99241.69;5036617;28;45424;-56
2022/08/07 00:27:11;;;;;;;;;9.50;9.50;;;;;24.66;49.49;99239.72;5036756;28;45303;-56
2022/08/07 00:29:37;;;;;;;;;11.00;10.25;;;;;24.61;49.64;99234.78;5037107;28;45492;-56
2022/08/07 00:32:03;;;;;;;;;14.25;12.50;;;;;24.61;50.18;99242.88;5036070;28;46326;-56
2022/08/07 00:34:29;;;;;;;;;13.50;10.00;;;;;24.60;49.96;99243.00;5036607;28;45392;-56
2022/08/07 00:36:55;;;;;;;;;7.75;7.75;;;;;24.60;50.12;99251.09;5036686;28;45359;-56
2022/08/07 00:39:20;;;;;;;;;10.25;8.25;;;;;24.59;50.36;99247.56;5036784;28;45467;-56
2022/08/07 00:41:55;;;;;;;;;10.00;9.00;;;;;24.60;50.36;99249.25;5036352;28;45704;-55
2022/08/07 00:44:20;;;;;;;;;10.00;10.00;;;;;24.59;50.06;99249.41;5036687;28;45460;-56
2022/08/07 00:46:46;;;;;;;;;9.25;8.75;;;;;24.57;50.41;99254.09;5051853;28;45485;-55
2022/08/07 00:49:12;;;;;;;;;11.00;10.00;;;;;24.55;50.13;99253.38;5056628;28;45553;-57
2022/08/07 00:51:37;;;;;;;;;9.50;9.00;;;;;24.51;50.37;99255.50;5056187;28;46150;-57
2022/08/07 00:54:03;;;;;;;;;12.00;10.50;;;;;24.48;50.83;99249.56;5056356;28;45362;-56
2022/08/07 00:56:29;;;;;;;;;8.25;8.00;;;;;24.44;50.72;99249.03;5040204;28;45349;-55
2022/08/07 00:58:55;;;;;;;;;11.00;11.00;;;;;24.40;50.90;99258.38;5036429;28;45429;-56
2022/08/07 01:01:21;;;;;;;;;11.50;11.50;;;;;24.36;50.76;99251.59;5035905;28;45547;-56
2022/08/07 01:03:50;;;;;;;;;8.25;8.25;;;;;24.31;51.11;99251.16;5036479;28;45484;-56
2022/08/07 01:06:16;;;;;;;;;10.00;8.75;;;;;24.27;51.00;99256.00;5035893;28;45413;-56
2022/08/07 01:08:42;;;;;;;;;11.50;11.50;;;;;24.25;51.56;99258.00;5036374;28;45580;-56
2022/08/07 01:11:08;;;;;;;;;9.00;9.00;;;;;24.24;50.97;99261.69;5035936;28;46128;-56
2022/08/07 01:13:35;;;;;;;;;11.75;11.25;;;;;24.21;51.41;99258.41;5035994;28;45419;-56
2022/08/07 01:16:01;;;;;;;;;8.50;8.50;;;;;24.15;51.11;99258.97;5035636;28;45382;-56
2022/08/07 01:18:28;;;;;;;;;10.25;10.25;;;;;24.11;50.95;99258.41;5036261;28;45434;-56
2022/08/07 01:21:11;;;;;;;;;9.00;9.00;;;;;24.07;51.69;99251.63;5035691;28;45438;-56
2022/08/07 01:23:39;;;;;;;;;10.50;10.25;;;;;24.03;51.83;99266.34;5034658;28;45384;-56
2022/08/07 01:26:07;;;;;;;;;9.50;9.50;;;;;24.00;51.77;99261.25;5035768;28;45379;-56
2022/08/07 01:28:32;;;;;;;;;8.25;8.25;;;;;23.96;52.24;99257.16;5034529;28;45349;-56
2022/08/07 01:31:00;;;;;;;;;9.00;8.75;;;;;23.94;52.08;99262.69;5035063;28;45455;-56
2022/08/07 01:33:25;;;;;;;;;10.75;10.75;;;;;23.91;52.08;99256.72;5035627;28;45447;-56
2022/08/07 01:35:51;;;;;;;;;9.75;9.75;;;;;23.91;52.27;99254.03;5042573;28;45409;-57
2022/08/07 01:38:17;;;;;;;;;13.00;13.00;;;;;23.89;52.21;99254.19;5042459;28;45428;-55
2022/08/07 01:40:45;;;;;;;;;9.00;7.00;;;;;23.89;52.43;99256.03;5035861;28;46313;-56
2022/08/07 01:43:10;;;;;;;;;9.50;9.50;;;;;23.88;51.97;99257.84;5035511;28;45365;-56
2022/08/07 01:45:36;;;;;;;;;9.75;9.75;;;;;23.89;52.85;99262.25;5042249;28;45339;-56
2022/08/07 01:48:03;;;;;;;;;9.50;9.25;;;;;23.90;52.66;99261.25;5054072;28;45448;-56
2022/08/07 01:50:29;;;;;;;;;8.50;8.50;;;;;23.89;52.48;99256.88;5055264;28;46644;-56
2022/08/07 01:52:57;;;;;;;;;8.00;8.00;;;;;23.87;52.79;99258.84;5055383;28;45378;-56
2022/08/07 01:55:33;;;;;;;;;9.00;7.25;;;;;23.84;52.80;99253.75;5047315;28;45392;-56
2022/08/07 01:58:01;;;;;;;;;10.50;9.25;;;;;23.81;52.52;99259.41;5035444;28;45373;-55
2022/08/07 02:00:30;;;;;;;;;9.25;9.25;;;;;23.76;53.05;99256.31;5034832;28;47969;-54
2022/08/07 02:03:01;;;;;;;;;10.60;9.80;;;;;23.77;53.19;99257.16;5035254;28;45417;-56
2022/08/07 02:05:33;;;;;;;;;12.00;10.00;;;;;23.76;53.36;99261.69;5035150;28;45460;-56
2022/08/07 02:08:04;;;;;;;;;9.00;9.00;;;;;23.75;53.08;99253.75;5035069;28;45441;-56
2022/08/07 02:10:32;;;;;;;;;12.00;9.75;;;;;23.75;52.79;99268.06;5035086;28;45742;-56
2022/08/07 02:13:00;;;;;;;;;8.50;8.50;;;;;23.74;53.06;99271.75;5034830;28;45448;-56
2022/08/07 02:15:27;;;;;;;;;11.00;9.25;;;;;23.73;53.12;99266.50;5034894;28;45371;-57
2022/08/07 02:17:54;;;;;;;;;10.00;9.25;;;;;23.71;52.98;99265.78;5034779;28;45531;-56
2022/08/07 02:20:22;;;;;;;;;9.75;9.75;;;;;23.69;53.43;99268.63;5034952;28;46601;-56
2022/08/07 02:22:48;;;;;;;;;10.00;10.00;;;;;23.69;53.37;99276.69;5034977;28;45376;-56
2022/08/07 02:25:18;;;;;;;;;10.75;10.75;;;;;23.66;53.32;99268.91;5034774;28;45345;-56
2022/08/07 02:27:46;;;;;;;;;12.50;10.00;;;;;23.60;53.87;99266.78;5040093;28;45525;-56
2022/08/07 02:30:12;;;;;;;;;8.50;8.50;;;;;23.57;53.29;99267.91;5054539;28;46501;-56
2022/08/07 02:32:37;;;;;;;;;11.50;9.50;;;;;23.55;53.80;99263.66;5054589;28;45453;-56
2022/08/07 02:35:06;;;;;;;;;9.50;9.50;;;;;23.52;53.47;99259.41;5054972;28;45336;-55
2022/08/07 02:37:34;;;;;;;;;11.75;11.00;;;;;23.49;53.75;99256.94;5054932;28;45547;-55
2022/08/07 02:40:01;;;;;;;;;10.75;9.00;;;;;23.45;53.62;99262.78;5054837;28;46497;-56
2022/08/07 02:42:30;;;;;;;;;11.00;10.75;;;;;23.37;53.82;99265.28;5054770;28;45348;-56
2022/08/07 02:44:55;;;;;;;;;12.25;10.25;;;;;23.34;54.41;99261.03;5054394;28;45340;-56
2022/08/07 02:47:21;;;;;;;;;10.75;9.25;;;;;23.31;54.59;99267.53;5054735;28;45451;-57
2022/08/07 02:49:47;;;;;;;;;11.50;10.75;;;;;23.30;54.27;99260.47;5054888;28;45444;-55
2022/08/07 02:52:20;;;;;;;;;11.75;11.75;;;;;23.29;54.67;99256.06;5054824;28;45444;-56
2022/08/07 02:54:47;;;;;;;;;9.75;9.50;;;;;23.26;54.64;99258.22;5052929;28;45425;-55
2022/08/07 02:57:14;;;;;;;;;9.00;9.00;;;;;23.22;54.72;99254.94;5034494;28;45445;-56
2022/08/07 02:59:44;;;;;;;;;11.25;11.00;;;;;23.19;55.62;99255.19;5034123;28;46700;-56
2022/08/07 03:02:13;;;;;;;;;12.50;12.50;;;;;23.16;55.48;99254.63;5034291;28;45498;-56
2022/08/07 03:04:41;;;;;;;;;12.25;11.00;;;;;23.12;55.11;99254.06;5034530;28;45465;-56
2022/08/07 03:07:07;;;;;;;;;11.50;10.50;;;;;23.09;55.08;99248.97;5034329;28;45247;-56
2022/08/07 03:09:34;;;;;;;;;12.75;11.50;;;;;23.06;55.55;99257.31;5033954;28;46243;-56
2022/08/07 03:12:04;;;;;;;;;11.00;10.00;;;;;23.04;54.86;99256.59;5034750;28;45422;-55
2022/08/07 03:14:31;;;;;;;;;11.50;11.50;;;;;23.03;55.57;99257.56;5034062;28;45473;-56
2022/08/07 03:16:57;;;;;;;;;9.50;8.75;;;;;22.97;56.10;99258.09;5033977;28;45456;-55
2022/08/07 03:19:24;;;;;;;;;9.50;9.00;;;;;22.92;56.21;99257.69;5033806;28;46434;-56
2022/08/07 03:21:51;;;;;;;;;12.50;11.75;;;;;22.86;56.01;99260.91;5034303;28;45423;-56
2022/08/07 03:24:17;;;;;;;;;12.75;10.25;;;;;22.82;56.63;99256.78;5032851;28;45402;-57
2022/08/07 03:26:44;;;;;;;;;10.25;10.25;;;;;22.83;56.17;99256.66;5034222;28;45318;-56
2022/08/07 03:29:12;;;;;;;;;8.75;8.75;;;;;22.84;56.01;99260.19;5034215;28;46511;-56
2022/08/07 03:31:40;;;;;;;;;9.00;9.00;;;;;22.84;56.51;99255.66;5033747;28;45383;-55
2022/08/07 03:34:09;;;;;;;;;13.25;13.00;;;;;22.85;56.41;99254.66;5034334;28;45404;-55
2022/08/07 03:36:38;;;;;;;;;10.50;10.50;;;;;22.86;56.13;99247.47;5033844;28;45342;-56
2022/08/07 03:39:08;;;;;;;;;12.00;10.25;;;;;22.90;56.13;99251.59;5033721;28;47534;-56
2022/08/07 03:41:36;;;;;;;;;10.25;9.75;;;;;22.91;56.38;99243.38;5036715;28;45486;-56
2022/08/07 03:44:02;;;;;;;;;10.50;10.00;;;;;22.90;56.16;99247.06;5037676;28;45446;-54
2022/08/07 03:46:29;;;;;;;;;11.25;11.25;;;;;22.91;56.53;99254.16;5049972;28;45357;-56
2022/08/07 03:48:54;;;;;;;;;9.75;9.75;;;;;22.91;56.64;99248.75;5057493;28;45534;-56
2022/08/07 03:51:20;;;;;;;;;11.75;11.75;;;;;22.91;56.47;99245.22;5057285;28;45465;-56
2022/08/07 03:53:48;;;;;;;;;12.00;12.00;;;;;22.92;56.39;99245.09;5057431;28;45314;-56
2022/08/07 03:56:20;;;;;;;;;12.00;10.75;;;;;22.93;56.54;99244.09;5043393;28;45453;-55
2022/08/07 03:58:47;;;;;;;;;12.25;11.25;;;;;22.92;56.15;99253.16;5037289;28;46216;-56
2022/08/07 04:01:14;;;;;;;;;10.25;9.50;;;;;22.92;56.73;99247.78;5036569;28;45425;-56
2022/08/07 04:03:40;;;;;;;;;12.00;12.00;;;;;22.91;56.27;99255.97;5036864;28;45492;-56
2022/08/07 04:06:09;;;;;;;;;15.00;13.25;;;;;22.90;56.39;99244.38;5036987;28;45425;-56
2022/08/07 04:08:38;;;;;;;;;14.00;13.75;;;;;22.90;56.78;99249.75;5036910;28;46570;-55
2022/08/07 04:11:04;;;;;;;;;11.75;11.25;;;;;22.90;56.57;99240.84;5037083;28;45544;-54
2022/08/07 04:13:31;;;;;;;;;13.75;12.75;;;;;22.88;56.75;99249.03;5037020;28;45485;-55
2022/08/07 04:15:57;;;;;;;;;12.00;12.00;;;;;22.87;56.72;99241.94;5036646;28;45513;-55
2022/08/07 04:18:22;;;;;;;;;12.75;11.75;;;;;22.87;56.67;99246.47;5036907;28;45424;-56
2022/08/07 04:20:48;;;;;;;;;9.75;9.75;;;;;22.88;56.75;99246.34;5036130;28;45555;-56
2022/08/07 04:23:15;;;;;;;;;11.25;11.25;;;;;22.89;56.45;99248.03;5037137;28;45336;-56
2022/08/07 04:25:42;;;;;;;;;11.50;9.50;;;;;22.89;56.43;99248.03;5036391;28;45416;-55
2022/08/07 04:28:09;;;;;;;;;12.25;12.00;;;;;22.91;56.60;99253.28;5036856;28;45379;-55
2022/08/07 04:30:35;;;;;;;;;12.50;10.75;;;;;22.92;56.91;99249.63;5036257;28;45469;-55
2022/08/07 04:33:06;;;;;;;;;9.50;8.25;;;;;22.91;57.09;99250.59;5036954;28;45299;-56
2022/08/07 04:35:31;;;;;;;;;13.25;12.25;;;;;22.90;56.58;99259.66;5036453;28;45574;-56
2022/08/07 04:37:57;;;;;;;;;10.75;10.75;;;;;22.90;56.80;99265.03;5036370;28;45501;-55
2022/08/07 04:40:22;;;;;;;;;8.75;8.50;;;;;22.86;56.82;99260.91;5036565;28;45681;-55
2022/08/07 04:42:48;;;;;;;;;11.75;11.75;;;;;22.84;57.22;99266.41;5036701;28;45444;-55
2022/08/07 04:45:13;;;;;;;;;11.50;10.75;;;;;22.81;56.99;99269.38;5038934;28;45477;-55
2022/08/07 04:48:22;;;;;;;;;10.25;10.25;;;;;22.79;56.99;99268.66;5056282;28;45408;-55
2022/08/07 04:50:59;;;;;;;;;13.25;10.00;;;;;22.76;57.38;99270.75;5026210;28;45430;-56
2022/08/07 04:53:30;;;;;;;;;11.25;11.25;;;;;22.77;57.32;99277.84;5056227;28;45376;-56
2022/08/07 04:56:12;;;;;;;;;14.25;12.75;;;;;22.77;57.88;99277.84;5045068;28;45428;-56
2022/08/07 04:58:57;;;;;;;;;16.50;13.50;;;;;22.77;57.70;99284.09;5035960;28;45724;-68
2022/08/07 05:01:29;;;;;;;;;12.00;12.00;;;;;22.77;57.60;99288.59;5036005;28;45627;-67
2022/08/07 05:04:01;;;;;;;;;13.00;12.25;;;;;22.78;57.45;99288.47;5036287;28;45569;-67
2022/08/07 05:06:52;;;;;;;;;9.75;9.75;;;;;22.80;57.73;99296.38;5035820;28;45517;-67
2022/08/07 05:09:30;;;;;;;;;11.00;11.00;;;;;22.80;57.48;99297.22;5036155;28;46509;-67
2022/08/07 05:12:01;;;;;;;;;11.25;10.25;;;;;22.82;57.63;99303.31;5035844;28;45416;-66
2022/08/07 05:14:33;;;;;;;;;11.50;11.00;;;;;22.83;57.88;99299.66;5035793;28;45436;-66
2022/08/07 05:17:02;;;;;;;;;10.75;10.75;;;;;22.84;57.83;99305.88;5045944;28;45302;-67
2022/08/07 05:19:36;;;;;;;;;11.25;11.25;;;;;22.84;57.91;99301.38;5055675;28;45337;-66
2022/08/07 05:22:07;;;;;;;;;15.25;13.25;;;;;22.85;57.88;99297.69;5056181;28;45461;-67
2022/08/07 05:24:34;;;;;;;;;11.75;10.75;;;;;22.88;58.02;99305.50;5049600;28;45467;-67
2022/08/07 05:27:01;;;;;;;;;11.25;11.25;;;;;22.90;57.85;99308.91;5048911;28;45515;-66
2022/08/07 05:29:28;;;;;;;;;13.50;13.00;;;;;22.91;57.59;99317.81;5049022;27;45471;-67
2022/08/07 05:31:55;;;;;;;;;12.00;10.00;;;;;22.94;57.88;99317.56;5047487;28;45341;-67
2022/08/07 05:34:23;;;;;;;;;13.50;11.75;;;;;22.97;57.99;99315.41;5035882;28;45397;-67
2022/08/07 05:36:54;;;;;;;;;13.00;10.75;;;;;23.00;58.05;99317.00;5036209;28;45491;-67
2022/08/07 05:39:21;;;;;;;;;13.50;12.25;;;;;23.01;57.47;99323.22;5055192;27;45471;-67
2022/08/07 05:41:47;;;;;;;;;14.00;12.00;;;;;23.04;57.40;99322.97;5055505;28;45377;-66
2022/08/07 05:44:17;;;;;;;;;13.75;11.75;;;;;23.05;58.04;99327.34;5055958;28;45465;-67
2022/08/07 05:46:43;;;;;;;;;11.50;11.50;;;;;23.06;57.65;99327.22;5054468;28;45353;-67
2022/08/07 05:49:10;;;;;;;;;14.25;10.75;;;;;23.08;57.56;99335.16;5056007;28;45529;-67
2022/08/07 05:51:36;;;;;;;;;15.00;14.00;;;;;23.12;57.52;99328.53;5055325;28;45432;-66
2022/08/07 05:54:02;;;;;;;;;11.75;11.75;;;;;23.13;57.78;99330.19;5055727;27;45431;-67
2022/08/07 05:56:30;;;;;;;;;13.00;11.50;;;;;23.13;57.79;99333.75;5039476;28;45363;-67
2022/08/07 05:58:58;;;;;;;;;13.50;11.75;;;;;23.15;57.42;99329.09;5035171;28;46414;-67
2022/08/07 06:01:26;;;;;;;;;13.50;13.00;;;;;23.16;57.51;99338.00;5034917;28;45427;-67
2022/08/07 06:03:54;;;;;;;;;10.00;9.00;;;;;23.22;57.26;99340.16;5034511;28;45449;-67
2022/08/07 06:06:20;;;;;;;;;13.00;12.00;;;;;23.24;57.59;99330.13;5034909;28;45585;-67
2022/08/07 06:08:46;;;;;;;;;12.25;11.75;;;;;23.23;57.32;99334.66;5035231;28;45361;-67
2022/08/07 06:11:12;;;;;;;;;16.00;13.25;;;;;23.27;57.34;99332.53;5048558;28;45342;-67
2022/08/07 06:13:38;;;;;;;;;14.00;13.00;;;;;23.28;57.09;99326.19;5045248;28;45448;-67
2022/08/07 06:16:06;;;;;;;;;13.00;13.00;;;;;23.30;57.20;99326.88;5054599;28;45325;-67
2022/08/07 06:18:32;;;;;;;;;11.50;11.25;;;;;23.32;57.33;99325.75;5055176;28;45634;-67
2022/08/07 06:21:02;;;;;;;;;16.00;13.50;;;;;23.34;57.31;99320.22;5054652;28;45380;-67
2022/08/07 06:23:29;;;;;;;;;12.75;12.00;;;;;23.39;56.77;99327.91;5043963;28;45584;-67
2022/08/07 06:25:55;;;;;;;;;11.75;11.75;;;;;23.44;57.29;99322.97;5034449;28;45429;-67
2022/08/07 06:28:21;;;;;;;;;12.25;12.25;;;;;23.47;56.90;99320.81;5034634;28;46759;-67
2022/08/07 06:30:46;;;;;;;;;15.50;14.75;;;;;23.50;57.14;99319.69;5034140;28;45460;-67
2022/08/07 06:33:12;;;;;;;;;13.25;13.25;;;;;23.52;56.91;99324.00;5034749;28;45443;-67
2022/08/07 06:35:37;;;;;;;;;14.50;14.50;;;;;23.55;56.54;99321.03;5033307;28;45507;-66
2022/08/07 06:38:03;;;;;;;;;13.00;12.50;;;;;23.56;56.52;99320.03;5034768;28;45406;-66
2022/08/07 06:40:33;;;;;;;;;12.00;12.00;;;;;23.61;56.82;99316.94;5038250;28;45381;-66
2022/08/07 06:43:02;;;;;;;;;12.50;12.50;;;;;23.64;56.79;99319.34;5060743;28;45532;-67
2022/08/07 06:45:28;;;;;;;;;13.75;13.00;;;;;23.70;56.59;99312.56;5053541;28;45337;-66
2022/08/07 06:47:54;;;;;;;;;12.25;12.25;;;;;23.73;56.16;99323.03;5054744;28;45545;-67
2022/08/07 06:50:20;;;;;;;;;12.75;12.75;;;;;23.76;56.67;99317.38;5040791;28;45505;-67
2022/08/07 06:52:51;;;;;;;;;12.25;11.50;;;;;23.78;56.17;99324.34;5054908;28;45455;-66
2022/08/07 06:55:24;;;;;;;;;14.00;12.25;;;;;23.81;56.21;99321.34;5048546;28;45401;-66
2022/08/07 06:57:51;;;;;;;;;13.25;13.25;;;;;23.83;56.29;99315.81;5032543;28;46644;-66
2022/08/07 07:00:18;;;;;;;;;15.00;13.00;;;;;23.84;56.26;99315.69;5033939;28;45413;-66
2022/08/07 07:02:45;;;;;;;;;11.00;11.00;;;;;23.89;56.04;99316.13;5034018;28;45400;-67
2022/08/07 07:05:11;;;;;;;;;14.00;14.00;;;;;23.93;56.46;99309.47;5033633;28;45483;-66
2022/08/07 07:07:36;;;;;;;;;11.25;11.00;;;;;24.00;55.73;99305.19;5034018;28;45445;-66
2022/08/07 07:10:03;;;;;;;;;13.50;11.75;;;;;24.05;55.52;99312.84;5032681;28;46026;-66
2022/08/07 07:12:45;;;;;;;;;13.25;12.75;;;;;24.10;55.72;99307.06;5034336;28;45438;-67
2022/08/07 07:15:19;;;;;;;;;12.00;12.00;;;;;24.16;55.74;99311.84;5036315;28;45477;-67
2022/08/07 07:17:55;;;;;;;;;10.75;10.75;;;;;24.21;55.17;99306.88;5041335;28;46310;-67
2022/08/07 07:20:28;;;;;;;;;14.75;13.25;;;;;24.26;55.50;99310.91;5057744;28;45396;-67
2022/08/07 07:22:54;;;;;;;;;15.00;14.00;;;;;24.34;54.89;99305.63;5057891;28;45416;-66
2022/08/07 07:25:21;;;;;;;;;12.00;12.00;;;;;24.38;54.92;99308.88;5057814;28;45209;-66
2022/08/07 07:28:01;;;;;;;;;14.50;12.75;;;;;24.40;55.15;99298.81;5057590;28;45593;-66
2022/08/07 07:30:35;;;;;;;;;13.75;13.25;;;;;24.44;54.87;99292.16;5042885;28;45436;-67
2022/08/07 07:33:02;;;;;;;;;15.00;15.00;;;;;24.48;54.60;99300.78;5057567;28;45393;-67
2022/08/07 07:35:30;;;;;;;;;9.50;9.00;;;;;24.53;54.75;99299.34;5054748;28;45491;-66
2022/08/07 07:37:58;;;;;;;;;11.75;11.75;;;;;24.54;54.61;99294.81;5046633;28;46275;-66
2022/08/07 07:40:24;;;;;;;;;14.50;13.25;;;;;24.54;54.43;99286.72;5055716;28;45385;-67
2022/08/07 07:42:53;;;;;;;;;14.50;14.50;;;;;24.53;54.64;99296.66;5057451;28;45369;-66
2022/08/07 07:45:25;;;;;;;;;12.50;12.50;;;;;24.56;54.38;99285.59;5056776;28;45413;-67
2022/08/07 07:47:52;;;;;;;;;12.50;12.50;;;;;24.59;54.42;99287.13;5057023;28;46664;-67
2022/08/07 07:50:21;;;;;;;;;12.75;12.75;;;;;24.60;54.40;99284.31;5056988;28;45569;-67
2022/08/07 07:52:48;;;;;;;;;14.00;13.00;;;;;24.62;54.56;99276.06;5044948;28;45479;-67
2022/08/07 07:55:17;;;;;;;;;15.00;13.25;;;;;24.63;54.94;99280.47;5055453;28;45523;-67
2022/08/07 07:57:44;;;;;;;;;14.50;14.50;;;;;24.70;54.38;99277.03;5055380;28;45413;-66
2022/08/07 08:00:12;;;;;;;;;13.50;13.50;;;;;24.77;54.42;99281.84;5056292;28;45444;-66
2022/08/07 08:02:42;;;;;;;;;17.50;16.00;;;;;24.79;54.28;99277.16;5057186;28;45321;-67
2022/08/07 08:05:09;;;;;;;;;15.00;12.50;;;;;24.78;54.47;99270.91;5050071;28;45575;-66
2022/08/07 08:07:36;;;;;;;;;14.25;14.25;;;;;24.79;54.24;99269.06;5031969;28;47672;-66
2022/08/07 08:10:04;;;;;;;;;15.50;14.50;;;;;24.84;54.37;99267.59;5036821;28;45496;-66
2022/08/07 08:12:32;;;;;;;;;13.50;12.75;;;;;24.88;54.28;99268.16;5036952;28;45431;-66
2022/08/07 08:14:57;;;;;;;;;11.50;11.50;;;;;24.92;54.00;99262.31;5056045;28;45561;-66
2022/08/07 08:17:24;;;;;;;;;14.50;13.50;;;;;24.98;54.22;99263.59;5056261;28;46592;-67
2022/08/07 08:19:53;;;;;;;;;13.50;13.00;;;;;25.05;53.92;99259.31;5042317;28;45607;-67
2022/08/07 08:27:53;;;;;;;;;14.75;14.50;;;;;25.18;53.60;99257.09;5035493;28;45469;-67
2022/08/07 08:30:20;;;;;;;;;15.00;14.00;;;;;25.24;53.65;99252.94;5035771;28;45412;-67
2022/08/07 08:32:51;;;;;;;;;14.75;13.25;;;;;25.30;53.60;99244.25;5056727;28;45298;-67
2022/08/07 08:35:22;;;;;;;;;9.25;8.50;;;;;25.38;53.41;99241.63;5056167;28;45467;-56
2022/08/07 08:37:51;;;;;;;;;14.00;14.00;;;;;25.43;52.93;99249.28;5055209;28;48600;-56
2022/08/07 08:40:45;;;;;;;;;12.20;12.20;;;;;25.47;52.87;99251.50;5056183;28;45476;-56
2022/08/07 08:43:25;;;;;;;;;12.50;12.50;;;;;25.47;52.77;99251.50;5051921;28;45415;-57
2022/08/07 08:46:03;;;;;;;;;13.75;13.75;;;;;25.40;52.79;99247.72;5055704;28;45298;-55
2022/08/07 08:48:37;;;;;;;;;16.25;15.75;;;;;25.35;52.86;99250.88;5056024;28;46468;-56
2022/08/07 08:51:32;;;;;;;;;14.00;14.00;;;;;25.33;52.95;99247.47;5055944;28;45441;-55
2022/08/07 08:54:00;;;;;;;;;17.00;16.50;;;;;25.41;52.87;99249.44;5055308;28;45547;-56
2022/08/07 08:56:43;;;;;;;;;19.50;17.75;;;;;25.46;52.72;99249.84;5040506;28;45395;-57
2022/08/07 08:59:09;;;;;;;;;15.50;14.00;;;;;25.45;52.47;99256.22;5035666;28;45588;-55
2022/08/07 09:01:43;;;;;;;;;16.50;15.50;;;;;25.42;52.24;99247.59;5035456;28;45490;-56
2022/08/07 09:04:11;;;;;;;;;17.75;17.50;;;;;25.34;52.58;99251.88;5035960;28;45448;-56
2022/08/07 09:06:58;;;;;;;;;13.25;12.75;;;;;25.29;52.85;99245.25;5035418;28;45450;-56
2022/08/07 09:09:47;;;;;;;;;15.00;14.25;;;;;25.31;52.55;99237.84;5036029;28;46407;-56
2022/08/07 09:12:36;;;;;;;;;21.00;19.75;;;;;25.39;52.84;99243.34;5035801;28;45498;-56
2022/08/07 09:15:13;;;;;;;;;14.75;14.75;;;;;25.43;52.41;99239.34;5034578;28;45445;-56
2022/08/07 09:18:15;;;;;;;;;17.25;16.00;;;;;25.50;52.34;99240.41;5035601;28;45409;-56
2022/08/07 09:21:18;;;;;;;;;18.00;16.25;;;;;25.57;52.07;99238.81;5035009;28;46998;-56
2022/08/07 09:24:04;;;;;;;;;18.50;17.50;;;;;25.58;52.01;99236.94;5035316;28;45357;-56
2022/08/07 09:26:45;;;;;;;;;20.75;17.00;;;;;25.66;52.00;99237.91;5043356;28;45432;-56
2022/08/07 09:29:37;;;;;;;;;15.00;14.50;;;;;25.82;51.80;99234.50;5055181;28;45557;-56
2022/08/07 09:32:40;;;;;;;;;16.75;16.50;;;;;26.01;51.34;99225.38;5055212;28;46087;-56
2022/08/07 09:35:20;;;;;;;;;12.00;12.00;;;;;26.24;51.39;99229.28;5055677;28;45372;-57
2022/08/07 09:37:49;;;;;;;;;15.00;13.75;;;;;26.40;50.81;99225.84;5055419;28;45400;-58
2022/08/07 09:40:52;;;;;;;;;15.25;15.25;;;;;26.49;49.73;99224.03;5055107;28;45420;-56
2022/08/07 09:43:32;;;;;;;;;10.00;10.00;;;;;26.51;49.53;99224.72;5055352;28;46493;-57
2022/08/07 09:46:30;;;;;;;;;12.75;12.75;;;;;26.56;49.83;99211.59;5053406;28;45346;-56
2022/08/07 09:49:01;;;;;;;;;14.75;13.50;;;;;26.66;49.94;99213.16;5048367;28;45530;-56
2022/08/07 09:51:29;;;;;;;;;12.25;12.25;;;;;26.76;49.27;99203.06;5034993;28;45649;-57
2022/08/07 09:53:59;;;;;;;;;16.00;16.00;;;;;26.83;49.22;99214.06;5034995;28;45460;-56
2022/08/07 09:56:59;;;;;;;;;10.50;10.25;;;;;26.96;49.16;99209.09;5038965;28;45451;-56
2022/08/07 09:59:48;;;;;;;;;15.25;13.50;;;;;27.14;48.52;99213.56;5034793;28;45422;-57
2022/08/07 10:02:46;;;;;;;;;21.25;17.00;;;;;27.19;48.02;99212.03;5044184;28;45538;-56
2022/08/07 10:05:33;;;;;;;;;17.25;17.00;;;;;27.15;47.50;99207.97;5047422;28;46427;-55
2022/08/07 10:08:18;;;;;;;;;14.25;13.75;;;;;27.06;48.18;99212.50;5034814;28;45438;-56
2022/08/07 10:10:55;;;;;;;;;19.25;18.50;;;;;27.09;48.14;99197.81;5035232;28;45499;-57
2022/08/07 10:13:29;;;;;;;;;19.75;19.25;;;;;27.10;47.77;99196.78;5041994;28;45334;-57
2022/08/07 10:16:29;;;;;;;;;23.50;21.50;;;;;27.06;47.49;99198.13;5054389;28;45540;-56
2022/08/07 10:19:30;;;;;;;;;21.50;21.50;;;;;26.99;47.90;99197.94;5054668;28;45401;-57
2022/08/07 10:22:04;;;;;;;;;21.75;21.00;;;;;26.97;47.12;99194.56;5054565;28;45579;-56
2022/08/07 10:24:48;;;;;;;;;26.00;24.00;;;;;26.91;47.49;99194.31;5054585;28;45606;-57
2022/08/07 10:27:29;;;;;;;;;23.75;22.00;;;;;26.82;46.93;99179.06;5054434;28;45374;-56
2022/08/07 10:30:05;;;;;;;;;25.25;24.50;;;;;26.81;47.60;99190.91;5054389;28;45485;-56
2022/08/07 10:32:43;;;;;;;;;22.25;22.00;;;;;26.79;47.57;99182.97;5054648;28;45483;-56
2022/08/07 10:35:26;;;;;;;;;25.25;24.00;;;;;26.83;47.85;99169.94;5054646;28;45389;-57
2022/08/07 10:37:54;;;;;;;;;21.25;21.25;;;;;26.86;47.88;99169.59;5054352;28;45786;-56
2022/08/07 10:40:32;;;;;;;;;21.25;21.25;;;;;26.87;47.31;99171.31;5054081;28;45303;-56
2022/08/07 10:43:11;;;;;;;;;21.50;21.25;;;;;26.88;46.97;99157.63;5054421;28;45400;-57
2022/08/07 10:45:41;;;;;;;;;21.75;20.25;;;;;26.93;47.18;99167.97;5053882;28;45508;-56
2022/08/07 10:48:19;;;;;;;;;25.00;22.00;;;;;27.00;47.20;99169.00;5054189;28;46211;-57
2022/08/07 10:50:58;;;;;;;;;25.50;23.50;;;;;27.03;46.78;99161.41;5054207;28;45500;-56
2022/08/07 10:53:33;;;;;;;;;24.50;24.50;;;;;27.05;46.84;99153.13;5054184;28;45434;-56
2022/08/07 10:56:04;;;;;;;;;23.50;22.25;;;;;27.13;47.04;99163.16;5042704;28;45531;-57
2022/08/07 10:59:07;;;;;;;;;23.50;20.50;;;;;27.23;47.30;99153.00;5033803;28;47418;-56
2022/08/07 11:02:00;;;;;;;;;19.00;19.00;;;;;27.34;46.54;99158.09;5033846;28;45377;-56
2022/08/07 11:04:41;;;;;;;;;21.25;21.25;;;;;27.34;46.19;99148.09;5033600;28;45390;-56
2022/08/07 11:07:17;;;;;;;;;16.50;16.00;;;;;27.36;46.23;99151.50;5033820;28;45367;-56
2022/08/07 11:09:48;;;;;;;;;20.50;20.00;;;;;27.36;46.18;99151.50;5033538;28;46200;-56
2022/08/07 11:12:19;;;;;;;;;21.00;20.50;;;;;27.39;46.61;99151.16;5033596;28;45389;-56
2022/08/07 11:14:57;;;;;;;;;16.75;16.75;;;;;27.50;46.68;99141.00;5033180;28;45309;-56
2022/08/07 11:17:37;;;;;;;;;18.50;15.50;;;;;27.60;45.91;99147.16;5034020;28;45302;-56
2022/08/07 11:20:07;;;;;;;;;17.00;15.75;;;;;27.68;46.31;99144.44;5033338;28;45999;-57
2022/08/07 11:23:10;;;;;;;;;20.50;19.25;;;;;27.73;45.30;99132.06;5033625;28;45322;-56
2022/08/07 11:25:39;;;;;;;;;21.50;20.00;;;;;27.77;44.99;99155.09;5033578;28;45445;-58
2022/08/07 11:28:28;;;;;;;;;22.00;22.00;;;;;27.81;44.45;99138.53;5033902;28;45476;-56
2022/08/07 11:31:18;;;;;;;;;18.00;18.00;;;;;27.80;44.70;99132.25;5033324;28;46224;-57
2022/08/07 11:33:59;;;;;;;;;17.25;17.25;;;;;27.79;44.49;99141.41;5033189;28;45507;-57
2022/08/07 11:36:37;;;;;;;;;16.50;16.50;;;;;27.78;44.76;99123.44;5033845;28;45601;-57
2022/08/07 11:39:06;;;;;;;;;14.25;14.25;;;;;27.81;44.94;99125.81;5033361;28;45322;-57
2022/08/07 11:41:43;;;;;;;;;20.25;18.50;;;;;27.81;44.72;99141.22;5033382;28;45442;-56
2022/08/07 11:44:41;;;;;;;;;16.50;16.50;;;;;27.85;44.92;99124.44;5033079;28;45470;-57